Acton, Massachusetts
Current Conditions -  °F | °C
As of 6:56 AM on Monday 20 Oct 2014 (Local Time) from KBED Reporting Station
Clear Clear  
Wind Chill: 29°   Ceiling: Unl
Heat Index: 33°   Visibility: 10mi
Dew Point: 26°   Wind: 5mph
Humidity: 75%   Direction: 230°SW
Pressure: 30.02"   Gusts: NA
Location:  42.49°N, 71.43°W
Report Text: KBED 201056Z AUTO 23004KT 10SM CLR 01/M03 A3002 RMK AO2 SLP181 T00061033 TSNO
Loading
Personal Weather Stations






























Interactive Weather Map
Tropical Storm Tracking
New forecast layout! Learn more

10-Day Weather Forecast

Advertisements
Track Severe Weather on mobile